createdAt,value
2023-01-09T01:19:47.671Z,3.16
2023-01-09T01:26:23.880Z,2.76
2023-01-09T01:29:14.960Z,2.68
2023-01-09T01:31:58.123Z,2.62
2023-01-09T01:34:38.887Z,2.61
2023-01-09T01:41:16.493Z,2.83
2023-01-09T01:44:58.791Z,2.84
2023-01-09T01:48:14.499Z,2.84
2023-01-09T01:54:05.603Z,2.81
2023-01-09T01:57:08.486Z,2.63
2023-01-09T02:00:19.711Z,2.60
2023-01-09T02:02:55.662Z,2.57
2023-01-09T02:05:48.127Z,2.53
2023-01-09T02:08:30.329Z,2.63
2023-01-09T02:11:13.219Z,2.68
2023-01-09T02:13:42.124Z,2.78
2023-01-09T02:17:14.728Z,2.67
2023-01-09T02:20:15.368Z,2.65
2023-01-09T02:23:35.872Z,2.67
2023-01-09T02:27:36.712Z,2.69
2023-01-09T02:31:27.884Z,2.73
2023-01-09T02:42:47.366Z,2.57
2023-01-09T02:45:30.267Z,2.53
2023-01-09T02:45:47.322Z,2.58
2023-01-09T02:48:03.041Z,2.67
2023-01-09T02:51:08.892Z,2.76
2023-01-09T02:54:38.002Z,2.65
2023-01-09T02:58:22.389Z,2.74
2023-01-09T03:01:20.616Z,2.75
2023-01-09T03:04:27.765Z,2.67
2023-01-09T03:07:34.961Z,2.76
2023-01-09T03:10:41.410Z,2.67
2023-01-09T03:13:16.154Z,2.74
2023-01-09T03:15:50.850Z,2.74
2023-01-09T03:18:40.345Z,2.67
2023-01-09T03:21:30.859Z,2.63
2023-01-09T03:24:02.421Z,2.48
2023-01-09T03:26:31.161Z,2.60
2023-01-09T03:29:17.198Z,2.55
2023-01-09T03:31:48.023Z,2.56
2023-01-09T03:34:30.901Z,2.48
2023-01-09T03:37:05.172Z,2.44
2023-01-09T03:40:02.294Z,2.47
2023-01-09T03:42:39.755Z,2.57
2023-01-09T03:45:08.888Z,2.49
2023-01-09T03:47:38.777Z,2.50
2023-01-09T03:50:07.916Z,2.96
2023-01-09T03:52:50.652Z,2.90
2023-01-09T03:55:48.619Z,3.13
2023-01-09T03:58:28.307Z,3.20
2023-01-09T04:05:12.648Z,3.41
2023-01-09T04:07:52.470Z,3.40
2023-01-09T04:10:23.354Z,3.37
2023-01-09T04:12:54.057Z,3.41
2023-01-09T04:15:27.724Z,3.57
2023-01-09T04:18:03.944Z,3.56
2023-01-09T04:20:32.620Z,3.63
2023-01-09T04:23:03.022Z,3.74
2023-01-09T04:25:30.499Z,3.57
2023-01-09T04:28:00.937Z,3.63
2023-01-09T04:30:31.522Z,3.69
2023-01-09T04:32:59.015Z,3.61
2023-01-09T04:35:26.482Z,3.63
2023-01-09T04:38:04.428Z,3.84
2023-01-09T04:40:31.891Z,3.86
2023-01-09T04:43:05.343Z,3.85
2023-01-09T04:45:41.512Z,4.00
2023-01-09T04:48:10.740Z,3.81
2023-01-09T04:50:38.686Z,4.14
2023-01-09T04:53:08.730Z,3.82
2023-01-09T04:55:36.279Z,4.08
2023-01-09T04:58:03.859Z,3.80
2023-01-09T05:00:31.614Z,3.83
2023-01-09T05:02:59.497Z,3.97
2023-01-09T05:05:33.512Z,3.90
2023-01-09T05:08:00.804Z,3.92
2023-01-09T05:10:28.406Z,4.03
2023-01-09T05:12:59.032Z,4.18
2023-01-09T05:15:28.305Z,4.20
2023-01-09T05:17:58.073Z,4.39
2023-01-09T05:20:51.570Z,4.43
2023-01-09T05:23:19.033Z,4.42
2023-01-09T05:25:46.457Z,4.42
2023-01-09T05:28:19.733Z,4.47
2023-01-09T05:30:53.869Z,4.49
2023-01-09T05:33:21.780Z,4.49
2023-01-09T05:35:49.702Z,4.35
2023-01-09T05:38:19.291Z,4.62
2023-01-09T05:40:47.021Z,4.44
2023-01-09T05:43:20.471Z,4.57
2023-01-09T05:45:48.217Z,4.63
2023-01-09T05:48:24.988Z,4.57
2023-01-09T05:50:52.421Z,4.84
2023-01-09T05:53:19.943Z,4.90
2023-01-09T05:55:47.243Z,4.76
2023-01-09T05:58:14.677Z,4.84
2023-01-09T06:00:42.213Z,4.84
2023-01-09T06:03:09.540Z,4.91
2023-01-09T06:05:36.962Z,4.96
2023-01-09T06:08:04.310Z,4.93
2023-01-09T06:10:31.450Z,5.03
2023-01-09T06:12:58.777Z,5.10
2023-01-09T06:15:26.343Z,5.12
2023-01-09T06:17:53.618Z,5.11
2023-01-09T06:20:21.889Z,4.82
2023-01-09T06:22:51.931Z,4.95
2023-01-09T06:25:19.409Z,5.15
2023-01-09T06:27:47.052Z,5.03
2023-01-09T06:30:14.584Z,4.82
2023-01-09T06:32:50.773Z,4.79
2023-01-09T06:35:21.021Z,5.03
2023-01-09T06:37:49.865Z,5.10
2023-01-09T06:40:20.160Z,4.97
2023-01-09T06:42:59.341Z,4.83
2023-01-09T06:45:26.610Z,5.05
2023-01-09T06:48:01.225Z,4.91
2023-01-09T06:50:28.575Z,5.06
2023-01-09T06:52:58.831Z,5.14
2023-01-09T06:55:26.491Z,5.12
2023-01-09T06:57:54.496Z,4.90
2023-01-09T07:00:22.531Z,4.93
2023-01-09T07:02:49.935Z,5.00
2023-01-09T07:05:17.394Z,5.02
2023-01-09T07:07:44.879Z,4.91
2023-01-09T07:10:12.539Z,5.11
2023-01-09T07:12:39.698Z,4.98
2023-01-09T07:15:07.973Z,5.04
2023-01-09T07:17:35.302Z,5.10
2023-01-09T07:20:06.173Z,4.97
2023-01-09T07:22:36.447Z,5.12
2023-01-09T07:25:03.789Z,5.20
2023-01-09T07:27:31.080Z,5.12
2023-01-09T07:29:58.781Z,5.20
2023-01-09T07:32:25.886Z,5.30
2023-01-09T07:34:53.185Z,5.32
2023-01-09T07:37:20.462Z,5.25
2023-01-09T07:39:47.551Z,5.30
2023-01-09T07:42:15.040Z,5.25
2023-01-09T07:44:42.095Z,5.10
2023-01-09T07:47:09.229Z,5.24
2023-01-09T07:49:36.790Z,5.32
2023-01-09T07:52:04.884Z,5.39
2023-01-09T07:54:32.089Z,5.38
2023-01-09T07:56:59.347Z,5.32
2023-01-09T07:59:28.847Z,5.35
2023-01-09T08:01:58.911Z,5.26
2023-01-09T08:04:26.057Z,5.46
2023-01-09T08:06:53.221Z,5.23
2023-01-09T08:09:20.326Z,5.47
2023-01-09T08:11:47.668Z,5.42
2023-01-09T08:14:14.969Z,5.43
2023-01-09T08:16:43.905Z,5.38
2023-01-09T08:19:12.358Z,5.51
2023-01-09T08:21:40.324Z,5.44
2023-01-09T08:24:09.332Z,5.58
2023-01-09T08:26:36.474Z,5.45
2023-01-09T08:29:03.720Z,5.42
2023-01-09T08:31:30.871Z,5.65
2023-01-09T08:33:58.000Z,5.44
2023-01-09T08:36:25.245Z,5.60
2023-01-09T08:38:52.460Z,5.63
2023-01-09T08:41:38.171Z,5.59
2023-01-09T08:44:23.695Z,5.54
2023-01-09T08:47:06.139Z,5.70
2023-01-09T08:49:39.154Z,5.66
2023-01-09T08:52:07.807Z,5.73
2023-01-09T08:54:39.931Z,5.62
2023-01-09T08:57:08.193Z,5.72
2023-01-09T08:59:35.362Z,5.87
2023-01-09T09:02:02.479Z,5.76
2023-01-09T09:04:29.696Z,5.90
2023-01-09T09:06:56.750Z,5.99
2023-01-09T09:09:25.745Z,5.97
2023-01-09T09:11:53.069Z,5.99
2023-01-09T09:14:38.507Z,6.01
2023-01-09T09:17:05.559Z,6.06
2023-01-09T09:19:32.782Z,6.00
2023-01-09T09:22:00.900Z,5.98
2023-01-09T09:24:27.918Z,6.11
2023-01-09T09:26:54.931Z,6.14
2023-01-09T09:29:22.045Z,6.14
2023-01-09T09:31:49.221Z,6.18
2023-01-09T09:34:16.345Z,6.14
2023-01-09T09:36:43.517Z,6.13
2023-01-09T09:39:10.646Z,6.21
2023-01-09T09:42:19.626Z,6.16
2023-01-09T09:45:11.604Z,6.24
2023-01-09T09:48:17.130Z,6.27
2023-01-09T09:51:32.747Z,6.35
2023-01-09T09:54:31.530Z,6.34
2023-01-09T09:57:04.325Z,6.46
2023-01-09T09:59:38.785Z,6.42
2023-01-09T10:02:47.364Z,6.55
2023-01-09T10:06:05.352Z,6.53
2023-01-09T10:09:17.324Z,6.58
2023-01-09T10:12:04.027Z,6.62
2023-01-09T10:14:31.735Z,6.63
2023-01-09T10:17:32.818Z,6.67
2023-01-09T10:20:21.836Z,6.75
2023-01-09T10:23:22.573Z,6.81
2023-01-09T10:26:30.531Z,6.90
2023-01-09T10:29:52.541Z,7.02
2023-01-09T10:32:35.852Z,7.01
2023-01-09T10:35:23.221Z,7.11
2023-01-09T10:37:53.616Z,7.12
2023-01-09T10:40:47.211Z,7.08
2023-01-09T10:43:55.307Z,7.17
2023-01-09T10:46:47.374Z,7.19
2023-01-09T10:49:18.840Z,7.09
2023-01-09T10:52:21.049Z,7.26
2023-01-09T10:55:19.382Z,7.32
2023-01-09T10:57:54.143Z,7.35
2023-01-09T11:00:24.698Z,7.46
2023-01-09T11:02:53.480Z,7.40
2023-01-09T11:05:34.068Z,7.43
2023-01-09T11:08:11.581Z,7.48
2023-01-09T11:10:55.082Z,7.34
2023-01-09T11:13:34.813Z,7.42
2023-01-09T11:16:11.007Z,7.46
2023-01-09T11:19:01.002Z,7.52
2023-01-09T11:21:40.489Z,7.55
2023-01-09T11:24:21.317Z,7.62
2023-01-09T11:26:54.783Z,7.50
2023-01-09T11:29:27.050Z,7.68
2023-01-09T11:32:00.135Z,7.74
2023-01-09T11:34:36.415Z,7.67
2023-01-09T11:37:18.934Z,7.58
2023-01-09T11:39:48.185Z,7.66
2023-01-09T11:42:44.576Z,7.64
2023-01-09T11:45:32.790Z,7.68
2023-01-09T11:48:01.474Z,7.67
2023-01-09T11:50:31.947Z,7.60
2023-01-09T11:53:21.807Z,7.65
2023-01-09T11:56:01.820Z,7.66
2023-01-09T11:58:35.638Z,7.73
2023-01-09T12:01:47.837Z,7.74
2023-01-09T12:04:47.182Z,7.69
2023-01-09T12:07:54.386Z,7.66
2023-01-09T12:11:12.984Z,7.77
2023-01-09T12:14:34.868Z,7.76
2023-01-09T12:18:12.928Z,7.92
2023-01-09T12:21:08.283Z,7.89
2023-01-09T12:24:18.594Z,7.99
2023-01-09T12:27:22.926Z,8.26
2023-01-09T12:30:21.977Z,8.41
2023-01-09T12:33:45.001Z,8.39
2023-01-09T12:37:01.803Z,8.47
2023-01-09T12:40:05.626Z,8.65
2023-01-09T12:43:09.548Z,8.66
2023-01-09T12:46:00.198Z,8.40
2023-01-09T12:49:24.641Z,8.33
2023-01-09T12:52:24.550Z,8.61
2023-01-09T12:55:00.026Z,8.77
2023-01-09T12:57:49.052Z,9.06
2023-01-09T13:00:32.636Z,9.15
2023-01-09T13:03:30.091Z,8.83
2023-01-09T13:05:58.617Z,8.74
2023-01-09T13:09:05.646Z,8.80
2023-01-09T13:12:03.318Z,8.80
2023-01-09T13:15:18.482Z,8.74
2023-01-09T13:17:57.208Z,8.57
2023-01-09T13:20:38.837Z,8.46
2023-01-09T13:23:09.213Z,8.57
2023-01-09T13:25:46.944Z,8.56
2023-01-09T13:28:34.320Z,8.66
2023-01-09T13:31:33.798Z,8.47
2023-01-09T13:34:04.600Z,8.23
2023-01-09T13:36:39.843Z,8.23
2023-01-09T13:39:07.478Z,8.18
2023-01-09T13:42:12.247Z,8.06
2023-01-09T13:44:40.039Z,8.12
2023-01-09T13:47:30.773Z,8.15
2023-01-09T13:50:26.733Z,8.27
2023-01-09T13:52:54.127Z,8.32
2023-01-09T13:55:24.943Z,8.24
2023-01-09T13:58:08.636Z,8.15
2023-01-09T14:00:35.599Z,8.11
2023-01-09T14:03:38.452Z,8.05
2023-01-09T14:06:16.174Z,8.00
2023-01-09T14:08:45.389Z,7.92
2023-01-09T14:11:25.961Z,7.86
2023-01-09T14:14:01.606Z,7.81
2023-01-09T14:16:30.740Z,7.94
2023-01-09T14:19:36.070Z,7.89
2023-01-09T14:22:05.587Z,7.99
2023-01-09T14:24:47.123Z,7.99
2023-01-09T14:27:54.689Z,8.02
2023-01-09T14:30:27.991Z,7.98
2023-01-09T14:33:17.323Z,7.93
2023-01-09T14:36:14.983Z,7.89
2023-01-09T14:38:50.806Z,7.91
2023-01-09T14:42:02.472Z,7.88
2023-01-09T14:44:52.213Z,7.84
2023-01-09T14:47:48.111Z,7.79
2023-01-09T14:50:46.400Z,7.82
2023-01-09T14:53:30.780Z,7.85
2023-01-09T14:56:01.835Z,7.85
2023-01-09T14:58:34.869Z,7.84
2023-01-09T15:01:25.501Z,7.85
2023-01-09T15:04:02.864Z,7.79
2023-01-09T15:06:41.614Z,7.73
2023-01-09T15:09:45.922Z,7.75
2023-01-09T15:12:23.135Z,7.73
2023-01-09T15:14:59.452Z,7.71
2023-01-09T15:17:35.596Z,7.73
2023-01-09T15:20:06.538Z,7.73
2023-01-09T15:22:37.621Z,7.73
2023-01-09T15:25:39.989Z,7.76
2023-01-09T15:28:34.872Z,7.75
2023-01-09T15:31:11.539Z,7.73
2023-01-09T15:33:40.908Z,7.73
2023-01-09T15:36:25.409Z,7.74
2023-01-09T15:38:54.084Z,7.77
2023-01-09T15:41:50.629Z,7.73
2023-01-09T15:44:37.555Z,7.72
2023-01-09T15:47:35.046Z,7.63
2023-01-09T15:50:04.959Z,7.64
2023-01-09T15:52:51.942Z,7.63
2023-01-09T15:55:38.218Z,7.63
2023-01-09T15:59:09.516Z,7.63
2023-01-09T16:02:06.952Z,7.63
2023-01-09T16:04:53.843Z,7.50
2023-01-09T16:07:27.188Z,7.41
2023-01-09T16:10:36.857Z,7.38
2023-01-09T16:13:05.125Z,7.30
2023-01-09T16:15:46.618Z,7.26
2023-01-09T16:18:56.147Z,7.21
2023-01-09T16:21:51.782Z,7.21
2023-01-09T16:24:25.746Z,7.16
2023-01-09T16:27:33.972Z,7.06
2023-01-09T16:30:27.753Z,7.12
2023-01-09T16:32:57.723Z,7.22
2023-01-09T16:35:26.474Z,7.25
2023-01-09T16:37:53.759Z,7.25
2023-01-09T16:40:27.122Z,7.20
2023-01-09T16:43:05.640Z,7.18
2023-01-09T16:45:40.273Z,7.13
2023-01-09T16:48:22.014Z,7.11
2023-01-09T16:50:52.469Z,7.09
2023-01-09T16:53:28.644Z,7.01
2023-01-09T16:55:59.119Z,6.98
2023-01-09T16:58:45.329Z,7.00
2023-01-09T17:01:18.957Z,6.97
2023-01-09T17:03:48.023Z,6.89
2023-01-09T17:06:33.655Z,6.83
2023-01-09T17:09:01.545Z,6.73
2023-01-09T17:11:32.651Z,6.69
2023-01-09T17:14:04.128Z,6.64
2023-01-09T17:16:42.760Z,6.56
2023-01-09T17:19:20.340Z,6.52
2023-01-09T17:21:47.884Z,6.44
2023-01-09T17:24:34.350Z,6.43
2023-01-09T17:27:21.515Z,6.39
2023-01-09T17:29:59.434Z,6.31
2023-01-09T17:32:30.776Z,6.41
2023-01-09T17:34:58.364Z,6.33
2023-01-09T17:37:31.244Z,6.35
2023-01-09T17:40:05.929Z,6.36
2023-01-09T17:42:33.501Z,6.36
2023-01-09T17:45:22.170Z,6.39
2023-01-09T17:47:51.024Z,6.32
2023-01-09T17:50:23.350Z,6.34
2023-01-09T17:53:06.109Z,6.34
2023-01-09T17:55:39.018Z,6.35
2023-01-09T17:58:32.901Z,6.36
2023-01-09T18:01:06.210Z,6.33
2023-01-09T18:06:33.106Z,6.38
2023-01-09T18:09:04.712Z,6.38
2023-01-09T18:12:38.536Z,6.40
2023-01-09T18:15:12.030Z,6.39
2023-01-09T18:21:25.508Z,6.36
2023-01-09T18:23:58.565Z,6.42
2023-01-09T18:27:22.810Z,6.43
2023-01-09T18:30:33.311Z,6.47
2023-01-09T18:33:37.234Z,6.47
2023-01-09T18:37:11.126Z,6.60
2023-01-09T18:40:29.791Z,6.63
2023-01-09T18:43:24.975Z,6.65
2023-01-09T18:45:56.657Z,6.66
2023-01-09T18:48:32.952Z,6.68
2023-01-09T18:51:08.514Z,6.68
2023-01-09T18:53:44.228Z,6.69
2023-01-09T18:56:18.664Z,6.68
2023-01-09T18:58:51.309Z,6.69
2023-01-09T19:01:19.621Z,6.73
2023-01-09T19:04:04.052Z,6.74
2023-01-09T19:06:59.885Z,6.78
2023-01-09T19:09:27.438Z,6.82
2023-01-09T19:11:55.187Z,6.78
2023-01-09T19:14:28.209Z,6.78
2023-01-09T19:17:41.549Z,6.80
2023-01-09T19:20:16.152Z,6.84
2023-01-09T19:23:20.736Z,6.81
2023-01-09T19:26:40.463Z,6.90
2023-01-09T19:29:17.737Z,6.92
2023-01-09T19:32:47.679Z,6.94
2023-01-09T19:35:36.517Z,6.90
2023-01-09T19:38:35.123Z,6.89
2023-01-09T19:41:20.581Z,6.89
2023-01-09T19:47:41.251Z,6.94
2023-01-09T19:50:33.980Z,6.94
2023-01-09T20:00:23.913Z,6.92
2023-01-09T20:03:09.747Z,6.97
2023-01-09T20:05:43.003Z,6.96
2023-01-09T20:08:13.472Z,6.94
2023-01-09T20:10:46.808Z,6.89
2023-01-09T20:13:28.503Z,6.97
2023-01-09T20:16:20.391Z,6.94
2023-01-09T20:19:02.853Z,6.84
2023-01-09T20:21:54.843Z,6.91
2023-01-09T20:25:01.110Z,6.94
2023-01-09T20:28:01.450Z,6.96
2023-01-09T20:35:22.108Z,6.97
2023-01-09T20:36:40.041Z,6.97
2023-01-09T20:53:11.834Z,6.91
2023-01-09T20:55:38.933Z,6.96
2023-01-09T20:58:31.550Z,6.94
2023-01-09T21:07:42.662Z,6.90
2023-01-09T21:10:13.458Z,6.87
2023-01-09T21:13:07.917Z,6.88
2023-01-09T21:16:01.351Z,6.91
2023-01-09T21:18:29.543Z,6.94
2023-01-09T21:21:38.370Z,6.96
2023-01-09T21:24:12.262Z,6.87
2023-01-09T21:29:31.976Z,6.93
2023-01-09T21:31:59.898Z,6.97
2023-01-09T21:34:32.899Z,7.00
2023-01-09T21:37:00.529Z,7.03
2023-01-09T21:39:33.461Z,7.04
2023-01-09T21:42:29.113Z,7.08
2023-01-09T21:45:33.081Z,7.04
2023-01-09T21:48:06.943Z,7.05
2023-01-09T21:50:35.751Z,7.11
2023-01-09T21:53:06.964Z,7.08
2023-01-09T21:55:35.215Z,7.06
2023-01-09T21:58:03.534Z,7.09
2023-01-09T22:00:41.689Z,7.10
2023-01-09T22:03:21.996Z,7.11
2023-01-09T22:05:51.838Z,7.08
2023-01-09T22:08:19.322Z,7.07
2023-01-09T22:10:55.929Z,7.07
2023-01-09T22:13:23.363Z,7.07
2023-01-09T22:15:50.624Z,7.09
2023-01-09T22:18:20.800Z,7.12
2023-01-09T22:20:50.049Z,7.14
2023-01-09T22:23:20.042Z,7.10
2023-01-09T22:25:47.563Z,7.13
2023-01-09T22:28:15.060Z,7.14
2023-01-09T22:30:43.130Z,7.10
2023-01-09T22:33:11.294Z,7.10
2023-01-09T22:35:43.822Z,7.13
2023-01-09T22:38:12.904Z,7.12
2023-01-09T22:40:41.492Z,7.12
2023-01-09T22:43:14.280Z,7.08
2023-01-09T22:45:41.488Z,7.14
2023-01-09T22:48:09.046Z,7.11
2023-01-09T22:50:37.498Z,7.11
2023-01-09T22:53:04.965Z,7.08
2023-01-09T22:55:32.128Z,7.11
2023-01-09T22:57:59.269Z,7.11
2023-01-09T23:00:26.274Z,7.07
2023-01-09T23:02:53.544Z,7.12
2023-01-09T23:05:20.768Z,7.10
2023-01-09T23:07:47.867Z,7.12
2023-01-09T23:10:15.789Z,7.16
2023-01-09T23:12:47.595Z,7.14
2023-01-09T23:15:14.800Z,7.14
2023-01-09T23:17:41.871Z,7.12
2023-01-09T23:20:10.163Z,7.14
2023-01-09T23:22:37.337Z,7.10
2023-01-09T23:25:05.327Z,7.10
2023-01-09T23:27:32.390Z,7.01
2023-01-09T23:30:00.229Z,7.05
2023-01-09T23:32:27.243Z,7.08
2023-01-09T23:34:55.355Z,7.13
2023-01-09T23:37:22.428Z,7.03
2023-01-09T23:39:49.682Z,7.01
2023-01-09T23:42:35.808Z,7.07
2023-01-09T23:45:03.314Z,7.01
2023-01-09T23:47:30.523Z,7.03
2023-01-09T23:49:57.960Z,7.05
2023-01-09T23:52:25.166Z,7.05
2023-01-09T23:54:53.931Z,7.07
2023-01-09T23:57:21.320Z,7.06
2023-01-09T23:59:49.749Z,7.03
